createdAt,value
2019-04-27T00:01:45.319Z,6.90
2019-04-27T00:04:37.523Z,6.30
2019-04-27T00:07:29.252Z,6.45
2019-04-27T00:10:26.293Z,4.08
2019-04-27T00:13:10.703Z,6.33
2019-04-27T00:16:09.925Z,6.67
2019-04-27T00:21:35.152Z,8.23
2019-04-27T00:24:23.539Z,8.45
2019-04-27T00:27:12.968Z,23.70
2019-04-27T00:29:59.933Z,19.42
2019-04-27T00:32:47.166Z,15.95
2019-04-27T00:35:35.913Z,18.80
2019-04-27T00:38:24.632Z,25.70
2019-04-27T00:41:14.247Z,28.95
2019-04-27T00:44:01.430Z,26.52
2019-04-27T00:46:48.388Z,27.30
2019-04-27T00:49:35.947Z,21.33
2019-04-27T00:52:23.996Z,33.05
2019-04-27T00:55:13.084Z,26.75
2019-04-27T00:58:01.828Z,30.55
2019-04-27T01:00:54.034Z,25.23
2019-04-27T01:03:45.500Z,29.20
2019-04-27T01:06:33.627Z,39.55
2019-04-27T01:09:23.656Z,33.18
2019-04-27T01:12:11.259Z,37.65
2019-04-27T01:14:58.673Z,39.95
2019-04-27T01:17:45.855Z,51.53
2019-04-27T01:20:33.004Z,43.85
2019-04-27T01:23:20.251Z,55.52
2019-04-27T01:29:05.623Z,42.38
2019-04-27T01:31:52.958Z,53.78
2019-04-27T01:34:39.843Z,50.98
2019-04-27T01:37:28.517Z,45.98
2019-04-27T01:40:16.065Z,52.95
2019-04-27T01:45:49.950Z,58.57
2019-04-27T01:48:38.677Z,62.45
2019-04-27T01:51:25.714Z,62.45
2019-04-27T01:54:14.395Z,72.92
2019-04-27T01:57:04.151Z,73.37
2019-04-27T01:59:50.682Z,86.45
2019-04-27T02:02:42.427Z,62.58
2019-04-27T02:05:31.520Z,77.22
2019-04-27T02:08:19.612Z,76.42
2019-04-27T02:11:07.375Z,70.52
2019-04-27T02:13:54.425Z,63.68
2019-04-27T02:16:41.832Z,72.67
2019-04-27T02:19:30.123Z,66.97
2019-04-27T02:22:18.533Z,72.95
2019-04-27T02:25:08.943Z,78.37
2019-04-27T02:27:59.274Z,90.42
2019-04-27T02:30:49.840Z,77.15
2019-04-27T02:33:44.693Z,85.70
2019-04-27T02:36:32.134Z,73.45
2019-04-27T02:39:21.633Z,85.47
2019-04-27T02:42:10.156Z,75.67
2019-04-27T02:44:59.769Z,107.83
2019-04-27T02:47:48.997Z,74.67
2019-04-27T02:50:35.762Z,75.45
2019-04-27T02:53:41.460Z,69.00
2019-04-27T02:56:30.480Z,74.32
2019-04-27T02:59:19.686Z,83.92
2019-04-27T03:02:10.943Z,87.27
2019-04-27T03:05:00.641Z,81.72
2019-04-27T03:07:46.968Z,89.72
2019-04-27T03:10:34.279Z,67.35
2019-04-27T03:16:14.081Z,59.70
2019-04-27T03:19:18.101Z,66.25
2019-04-27T03:22:14.909Z,65.97
2019-04-27T03:25:11.614Z,74.50
2019-04-27T03:28:02.413Z,63.02
2019-04-27T03:30:52.238Z,66.37
2019-04-27T03:33:42.294Z,64.67
2019-04-27T03:36:26.222Z,72.30
2019-04-27T03:39:13.538Z,67.80
2019-04-27T03:44:47.137Z,55.05
2019-04-27T03:47:35.206Z,56.98
2019-04-27T03:50:24.239Z,63.92
2019-04-27T03:53:25.398Z,71.05
2019-04-27T03:56:14.455Z,63.70
2019-04-27T03:59:06.477Z,80.62
2019-04-27T04:01:53.631Z,83.90
2019-04-27T04:04:40.821Z,88.50
2019-04-27T04:07:30.016Z,96.67
2019-04-27T04:10:19.800Z,123.00
2019-04-27T04:13:17.479Z,107.83
2019-04-27T04:16:10.852Z,117.77
2019-04-27T04:19:00.890Z,114.45
2019-04-27T04:21:50.422Z,115.88
2019-04-27T04:24:39.555Z,130.20
2019-04-27T04:27:26.163Z,128.93
2019-04-27T04:30:13.639Z,149.95
2019-04-27T04:33:01.254Z,126.62
2019-04-27T04:35:49.689Z,142.57
2019-04-27T04:38:36.828Z,156.87
2019-04-27T04:41:43.681Z,129.95
2019-04-27T04:44:31.663Z,102.87
2019-04-27T04:47:32.806Z,100.58
2019-04-27T04:50:22.796Z,119.33
2019-04-27T04:53:12.595Z,122.72
2019-04-27T04:55:57.540Z,88.25
2019-04-27T04:58:45.066Z,103.38
2019-04-27T05:01:32.190Z,99.25
2019-04-27T05:04:19.481Z,82.50
2019-04-27T05:07:06.851Z,70.72
2019-04-27T05:09:54.180Z,71.12
2019-04-27T05:12:41.480Z,66.97
2019-04-27T05:15:29.341Z,62.73
2019-04-27T05:18:16.791Z,65.12
2019-04-27T05:21:08.838Z,59.23
2019-04-27T05:23:56.233Z,63.80
2019-04-27T05:26:43.369Z,73.05
2019-04-27T05:29:31.021Z,57.83
2019-04-27T05:32:18.876Z,64.50
2019-04-27T05:35:08.704Z,58.92
2019-04-27T05:37:55.744Z,49.33
2019-04-27T05:40:42.933Z,59.18
2019-04-27T05:43:39.010Z,55.80
2019-04-27T05:46:44.601Z,56.80
2019-04-27T05:49:36.395Z,41.42
2019-04-27T05:52:29.320Z,51.18
2019-04-27T05:55:16.511Z,44.30
2019-04-27T05:58:03.811Z,41.20
2019-04-27T06:03:39.402Z,35.52
2019-04-27T06:06:26.139Z,31.07
2019-04-27T06:09:13.175Z,33.80
2019-04-27T06:12:00.339Z,27.82
2019-04-27T06:14:49.297Z,26.45
2019-04-27T06:17:36.071Z,31.87
2019-04-27T06:20:23.468Z,33.13
2019-04-27T06:23:10.747Z,25.10
2019-04-27T06:26:01.127Z,19.62
2019-04-27T06:28:46.992Z,22.27
2019-04-27T06:31:34.163Z,20.20
2019-04-27T06:34:21.866Z,23.20
2019-04-27T06:37:09.574Z,17.60
2019-04-27T06:39:57.144Z,14.63
2019-04-27T06:42:45.357Z,18.80
2019-04-27T06:45:32.164Z,13.00
2019-04-27T06:48:19.442Z,13.48
2019-04-27T06:51:06.873Z,14.98
2019-04-27T06:53:53.860Z,11.08
2019-04-27T06:59:28.725Z,8.58
2019-04-27T07:02:16.135Z,10.25
2019-04-27T07:05:04.856Z,8.18
2019-04-27T07:07:51.472Z,7.95
2019-04-27T07:13:26.839Z,5.78
2019-04-27T07:16:14.080Z,5.92
2019-04-27T07:19:01.761Z,7.42
2019-04-27T07:21:49.810Z,7.17
2019-04-27T07:24:36.922Z,8.05
2019-04-27T07:27:24.184Z,6.70
2019-04-27T07:30:12.066Z,5.55
2019-04-27T07:33:00.413Z,5.40
2019-04-27T07:35:49.034Z,9.85
2019-04-27T07:38:36.537Z,10.08
2019-04-27T07:41:24.108Z,6.17
2019-04-27T07:44:15.616Z,6.92
2019-04-27T07:47:20.959Z,7.75
2019-04-27T07:50:09.696Z,5.35
2019-04-27T07:52:58.547Z,8.98
2019-04-27T07:55:45.681Z,6.28
2019-04-27T07:58:32.889Z,9.40
2019-04-27T08:01:20.611Z,9.23
2019-04-27T08:04:09.048Z,8.98
2019-04-27T08:06:56.263Z,10.45
2019-04-27T08:09:43.322Z,4.70
2019-04-27T08:12:30.351Z,7.50
2019-04-27T08:18:03.512Z,8.33
2019-04-27T08:20:50.869Z,6.67
2019-04-27T08:23:39.408Z,5.85
2019-04-27T08:26:28.700Z,6.47
2019-04-27T08:29:20.596Z,8.68
2019-04-27T08:32:12.013Z,5.80
2019-04-27T08:34:59.525Z,7.37
2019-04-27T08:37:46.696Z,6.60
2019-04-27T08:43:19.768Z,8.15
2019-04-27T08:46:08.623Z,10.25
2019-04-27T08:48:56.040Z,12.63
2019-04-27T08:51:56.048Z,8.83
2019-04-27T08:54:31.995Z,10.40
2019-04-27T08:57:19.595Z,7.47
2019-04-27T09:02:54.141Z,10.72
2019-04-27T09:05:41.547Z,6.22
2019-04-27T09:08:42.962Z,7.20
2019-04-27T09:11:50.151Z,10.05
2019-04-27T09:14:40.705Z,7.75
2019-04-27T09:17:31.019Z,8.60
2019-04-27T09:20:19.843Z,6.28
2019-04-27T09:23:09.704Z,11.75
2019-04-27T09:25:56.931Z,7.25
2019-04-27T09:28:45.925Z,7.62
2019-04-27T09:31:34.683Z,7.40
2019-04-27T09:34:21.634Z,8.23
2019-04-27T09:37:09.689Z,5.78
2019-04-27T09:39:57.257Z,8.60
2019-04-27T09:42:46.369Z,7.33
2019-04-27T09:45:34.992Z,8.08
2019-04-27T09:48:22.135Z,8.28
2019-04-27T09:51:09.516Z,9.08
2019-04-27T09:53:56.782Z,7.65
2019-04-27T09:56:46.759Z,7.17
2019-04-27T09:59:34.712Z,9.65
2019-04-27T10:02:21.984Z,6.95
2019-04-27T10:05:09.484Z,7.03
2019-04-27T10:07:57.065Z,5.87
2019-04-27T10:10:46.025Z,6.58
2019-04-27T10:13:33.734Z,6.28
2019-04-27T10:16:21.179Z,9.15
2019-04-27T10:19:08.684Z,6.30
2019-04-27T10:21:56.465Z,9.15
2019-04-27T10:24:44.545Z,6.80
2019-04-27T10:27:33.313Z,6.87
2019-04-27T10:30:20.677Z,9.93
2019-04-27T10:33:09.005Z,7.87
2019-04-27T10:36:01.715Z,6.37
2019-04-27T10:38:49.602Z,10.55
2019-04-27T10:41:39.336Z,5.85
2019-04-27T10:44:26.707Z,4.87
2019-04-27T10:47:16.128Z,8.18
2019-04-27T10:50:07.042Z,6.55
2019-04-27T10:52:54.315Z,5.78
2019-04-27T10:55:42.193Z,6.17
2019-04-27T10:58:30.063Z,9.15
2019-04-27T11:01:17.674Z,10.20
2019-04-27T11:04:15.922Z,9.58
2019-04-27T11:07:07.077Z,9.05
2019-04-27T11:09:54.423Z,9.20
2019-04-27T11:12:45.852Z,11.43
2019-04-27T11:15:37.013Z,7.50
2019-04-27T11:18:23.178Z,11.80
2019-04-27T11:21:10.716Z,13.03
2019-04-27T11:23:58.238Z,9.60
2019-04-27T11:26:46.870Z,14.58
2019-04-27T11:29:36.537Z,12.30
2019-04-27T11:32:25.017Z,6.05
2019-04-27T11:35:20.537Z,14.65
2019-04-27T11:38:08.975Z,11.20
2019-04-27T11:40:56.775Z,11.35
2019-04-27T11:43:46.445Z,11.70
2019-04-27T11:46:34.117Z,8.53
2019-04-27T11:49:21.590Z,4.95
2019-04-27T11:52:09.434Z,4.67
2019-04-27T11:54:56.909Z,8.10
2019-04-27T11:57:46.922Z,11.85
2019-04-27T12:00:34.333Z,6.65
2019-04-27T12:03:22.136Z,12.28
2019-04-27T12:06:10.376Z,9.95
2019-04-27T12:08:57.794Z,11.12
2019-04-27T12:11:45.729Z,9.50
2019-04-27T12:14:36.227Z,8.53
2019-04-27T12:17:25.730Z,11.53
2019-04-27T12:20:15.935Z,8.75
2019-04-27T12:23:06.367Z,5.50
2019-04-27T12:25:56.190Z,6.37
2019-04-27T12:28:47.071Z,6.70
2019-04-27T12:31:38.863Z,8.13
2019-04-27T12:34:27.881Z,6.85
2019-04-27T12:37:15.718Z,5.67
2019-04-27T12:40:07.407Z,4.60
2019-04-27T12:42:55.029Z,2.17
2019-04-27T12:45:43.677Z,5.20
2019-04-27T12:48:37.542Z,3.60
2019-04-27T12:51:24.855Z,5.30
2019-04-27T12:54:16.180Z,2.20
2019-04-27T12:57:06.012Z,5.00
2019-04-27T12:59:57.559Z,4.30
2019-04-27T13:02:45.940Z,7.15
2019-04-27T13:05:35.853Z,7.97
2019-04-27T13:08:23.416Z,6.95
2019-04-27T13:11:11.814Z,7.28
2019-04-27T13:13:59.998Z,6.33
2019-04-27T13:16:47.990Z,3.70
2019-04-27T13:19:36.760Z,5.75
2019-04-27T13:22:25.377Z,6.37
2019-04-27T13:25:15.171Z,10.53
2019-04-27T13:28:03.225Z,3.47
2019-04-27T13:30:50.701Z,5.47
2019-04-27T13:33:38.910Z,4.10
2019-04-27T13:36:27.982Z,2.85
2019-04-27T13:39:15.897Z,4.67
2019-04-27T13:42:03.748Z,2.25
2019-04-27T13:44:51.089Z,4.90
2019-04-27T13:47:43.389Z,1.62
2019-04-27T13:50:38.647Z,3.37
2019-04-27T13:53:26.233Z,1.00
2019-04-27T13:56:17.381Z,5.60
2019-04-27T13:59:07.742Z,1.00
2019-04-27T14:01:55.371Z,5.83
2019-04-27T14:04:43.463Z,4.20
2019-04-27T14:07:31.310Z,4.40
2019-04-27T14:10:20.339Z,3.87
2019-04-27T14:13:10.910Z,1.85
2019-04-27T14:15:57.361Z,2.80
2019-04-27T14:18:45.272Z,4.62
2019-04-27T14:21:33.224Z,4.87
2019-04-27T14:24:30.273Z,7.37
2019-04-27T14:27:15.130Z,5.05
2019-04-27T14:30:04.845Z,4.90
2019-04-27T14:32:53.052Z,3.47
2019-04-27T14:35:40.879Z,5.05
2019-04-27T14:38:28.784Z,4.03
2019-04-27T14:41:16.864Z,3.42
2019-04-27T14:44:08.333Z,9.10
2019-04-27T14:46:54.950Z,3.87
2019-04-27T14:49:44.659Z,6.90
2019-04-27T14:52:34.648Z,7.17
2019-04-27T14:55:22.357Z,2.08
2019-04-27T14:58:10.619Z,4.95
2019-04-27T15:00:58.549Z,5.55
2019-04-27T15:03:46.797Z,3.72
2019-04-27T15:06:35.152Z,5.20
2019-04-27T15:09:23.996Z,3.37
2019-04-27T15:12:12.840Z,1.85
2019-04-27T15:15:01.519Z,3.72
2019-04-27T15:17:49.462Z,5.67
2019-04-27T15:20:41.661Z,2.17
2019-04-27T15:23:31.046Z,5.47
2019-04-27T15:26:20.299Z,4.37
2019-04-27T15:29:11.937Z,3.98
2019-04-27T15:32:03.153Z,4.20
2019-04-27T15:34:53.646Z,4.90
2019-04-27T15:37:42.593Z,4.33
2019-04-27T15:40:43.998Z,8.33
2019-04-27T15:43:38.524Z,2.60
2019-04-27T15:46:29.373Z,3.62
2019-04-27T15:49:13.945Z,6.10
2019-04-27T15:52:01.215Z,3.83
2019-04-27T15:54:48.419Z,5.83
2019-04-27T15:57:38.127Z,3.70
2019-04-27T16:00:28.780Z,8.18
2019-04-27T16:03:16.112Z,6.25
2019-04-27T16:06:07.500Z,5.20
2019-04-27T16:08:52.223Z,6.60
2019-04-27T16:11:41.193Z,5.25
2019-04-27T16:14:28.944Z,4.12
2019-04-27T16:17:18.187Z,8.53
2019-04-27T16:20:05.703Z,5.20
2019-04-27T16:22:56.724Z,8.25
2019-04-27T16:25:48.632Z,4.62
2019-04-27T16:28:33.249Z,10.38
2019-04-27T16:31:24.910Z,3.22
2019-04-27T16:34:10.066Z,10.03
2019-04-27T16:36:59.183Z,6.75
2019-04-27T16:39:49.404Z,7.50
2019-04-27T16:42:38.379Z,5.37
2019-04-27T16:45:27.186Z,9.43
2019-04-27T16:48:14.587Z,4.65
2019-04-27T16:51:02.572Z,4.75
2019-04-27T16:53:49.980Z,7.80
2019-04-27T16:56:38.097Z,4.45
2019-04-27T16:59:40.994Z,6.78
2019-04-27T17:02:17.305Z,3.22
2019-04-27T17:05:04.276Z,6.40
2019-04-27T17:07:51.832Z,3.20
2019-04-27T17:10:39.293Z,6.53
2019-04-27T17:13:28.056Z,4.12
2019-04-27T17:16:36.159Z,3.40
2019-04-27T17:19:28.677Z,2.25
2019-04-27T17:22:18.292Z,4.08
2019-04-27T17:25:08.835Z,4.15
2019-04-27T17:28:03.893Z,3.17
2019-04-27T17:30:47.220Z,3.58
2019-04-27T17:33:38.096Z,5.08
2019-04-27T17:36:25.282Z,3.67
2019-04-27T17:39:13.087Z,3.40
2019-04-27T17:42:00.088Z,3.58
2019-04-27T17:44:48.554Z,7.45
2019-04-27T17:47:38.750Z,3.95
2019-04-27T17:50:28.042Z,4.05
2019-04-27T17:53:18.104Z,5.30
2019-04-27T17:56:06.062Z,5.80
2019-04-27T17:58:53.883Z,9.88
2019-04-27T18:01:41.834Z,3.75
2019-04-27T18:04:32.926Z,5.05
2019-04-27T18:07:19.109Z,5.92
2019-04-27T18:10:08.736Z,4.17
2019-04-27T18:12:58.156Z,4.67
2019-04-27T18:15:45.708Z,6.15
2019-04-27T18:18:37.989Z,6.28
2019-04-27T18:21:28.280Z,7.83
2019-04-27T18:24:18.623Z,6.85
2019-04-27T18:27:10.603Z,6.67
2019-04-27T18:30:10.462Z,5.97
2019-04-27T18:32:59.170Z,7.42
2019-04-27T18:35:46.157Z,5.00
2019-04-27T18:38:35.571Z,6.30
2019-04-27T18:41:23.417Z,8.03
2019-04-27T18:44:11.599Z,7.30
2019-04-27T18:47:02.162Z,4.97
2019-04-27T18:49:59.837Z,6.87
2019-04-27T18:52:49.567Z,11.78
2019-04-27T18:55:37.974Z,9.10
2019-04-27T18:58:25.405Z,6.33
2019-04-27T19:01:14.880Z,5.78
2019-04-27T19:04:03.642Z,7.28
2019-04-27T19:06:50.987Z,9.40
2019-04-27T19:09:38.607Z,9.13
2019-04-27T19:12:25.971Z,7.00
2019-04-27T19:15:13.500Z,6.30
2019-04-27T19:18:01.905Z,6.58
2019-04-27T19:20:50.637Z,5.60
2019-04-27T19:23:40.296Z,6.22
2019-04-27T19:26:48.468Z,6.83
2019-04-27T19:29:39.674Z,6.62
2019-04-27T19:32:28.238Z,6.33
2019-04-27T19:35:19.752Z,5.62
2019-04-27T19:38:05.524Z,5.05
2019-04-27T19:40:53.027Z,5.10
2019-04-27T19:43:40.573Z,3.30
2019-04-27T19:46:28.584Z,1.50
2019-04-27T19:49:16.813Z,5.30
2019-04-27T19:52:04.939Z,3.67
2019-04-27T19:54:52.317Z,4.05
2019-04-27T19:57:42.075Z,6.03
2019-04-27T20:00:48.398Z,9.40
2019-04-27T20:03:43.965Z,3.77
2019-04-27T20:06:31.234Z,4.87
2019-04-27T20:09:36.461Z,2.98
2019-04-27T20:12:24.120Z,3.72
2019-04-27T20:15:12.212Z,2.95
2019-04-27T20:18:00.847Z,3.83
2019-04-27T20:20:48.186Z,3.15
2019-04-27T20:23:35.986Z,4.22
2019-04-27T20:26:23.502Z,4.40
2019-04-27T20:29:11.816Z,4.30
2019-04-27T20:32:01.480Z,4.50
2019-04-27T20:34:48.698Z,3.35
2019-04-27T20:37:36.842Z,2.55
2019-04-27T20:40:24.131Z,3.52
2019-04-27T20:43:12.246Z,4.50
2019-04-27T20:46:00.919Z,6.92
2019-04-27T20:48:48.755Z,5.78
2019-04-27T20:51:52.880Z,6.22
2019-04-27T20:54:41.343Z,6.42
2019-04-27T20:57:28.167Z,3.40
2019-04-27T21:00:17.620Z,5.08
2019-04-27T21:03:12.528Z,5.62
2019-04-27T21:06:17.167Z,4.37
2019-04-27T21:09:10.889Z,7.95
2019-04-27T21:11:58.155Z,10.50
2019-04-27T21:14:46.443Z,6.70
2019-04-27T21:17:34.553Z,6.87
2019-04-27T21:20:22.028Z,14.95
2019-04-27T21:23:09.400Z,8.88
2019-04-27T21:25:56.437Z,7.28
2019-04-27T21:28:43.927Z,8.25
2019-04-27T21:31:31.672Z,7.60
2019-04-27T21:34:19.095Z,3.40
2019-04-27T21:37:06.269Z,7.17
2019-04-27T21:39:55.279Z,7.15
2019-04-27T21:42:42.880Z,9.25
2019-04-27T21:45:31.789Z,24.72
2019-04-27T21:48:21.060Z,13.10
2019-04-27T21:51:08.006Z,9.45
2019-04-27T21:53:59.947Z,10.45
2019-04-27T21:56:47.177Z,10.82
2019-04-27T21:59:34.643Z,6.65
2019-04-27T22:02:22.264Z,9.38
2019-04-27T22:05:12.165Z,6.95
2019-04-27T22:07:58.034Z,10.40
2019-04-27T22:13:31.328Z,5.85
2019-04-27T22:16:18.867Z,6.45
2019-04-27T22:19:06.834Z,7.35
2019-04-27T22:21:54.359Z,14.07
2019-04-27T22:24:43.058Z,8.98
2019-04-27T22:27:30.959Z,5.40
2019-04-27T22:30:18.033Z,7.10
2019-04-27T22:33:05.444Z,7.33
2019-04-27T22:35:53.308Z,10.50
2019-04-27T22:38:41.266Z,13.10
2019-04-27T22:41:31.402Z,7.40
2019-04-27T22:44:23.579Z,10.15
2019-04-27T22:47:11.119Z,8.88
2019-04-27T22:49:59.587Z,16.50
2019-04-27T22:52:46.994Z,18.48
2019-04-27T22:55:36.814Z,15.13
2019-04-27T22:58:24.323Z,13.70
2019-04-27T23:01:13.267Z,10.35
2019-04-27T23:04:02.085Z,11.05
2019-04-27T23:06:49.477Z,5.05
2019-04-27T23:09:36.963Z,8.95
2019-04-27T23:12:24.496Z,8.93
2019-04-27T23:15:13.573Z,9.45
2019-04-27T23:18:00.898Z,10.20
2019-04-27T23:20:47.882Z,9.95
2019-04-27T23:23:35.237Z,12.47
2019-04-27T23:26:22.555Z,6.05
2019-04-27T23:29:13.757Z,8.28
2019-04-27T23:32:01.550Z,12.53
2019-04-27T23:34:48.572Z,8.23
2019-04-27T23:37:36.086Z,7.87
2019-04-27T23:40:23.311Z,14.43
2019-04-27T23:43:11.519Z,9.00
2019-04-27T23:45:59.445Z,12.65
2019-04-27T23:48:46.423Z,5.05
2019-04-27T23:51:41.744Z,12.20
2019-04-27T23:54:28.660Z,11.95
2019-04-27T23:57:16.133Z,10.95
